createdAt,value
2022-10-29T00:01:00.816Z,16.07
2022-10-29T00:02:03.673Z,16.07
2022-10-29T00:03:05.437Z,16.07
2022-10-29T00:04:07.035Z,16.06
2022-10-29T00:05:08.906Z,15.90
2022-10-29T00:06:11.878Z,15.85
2022-10-29T00:07:13.336Z,15.83
2022-10-29T00:08:14.759Z,15.76
2022-10-29T00:09:16.183Z,15.71
2022-10-29T00:10:17.604Z,15.80
2022-10-29T00:11:20.966Z,15.69
2022-10-29T00:12:22.596Z,15.77
2022-10-29T00:13:24.013Z,15.80
2022-10-29T00:14:25.480Z,15.75
2022-10-29T00:15:26.905Z,15.67
2022-10-29T00:16:29.964Z,15.61
2022-10-29T00:17:33.882Z,15.61
2022-10-29T00:18:35.740Z,15.57
2022-10-29T00:19:37.228Z,15.56
2022-10-29T00:20:38.684Z,15.53
2022-10-29T00:21:40.160Z,15.54
2022-10-29T00:22:41.636Z,15.46
2022-10-29T00:23:43.167Z,15.37
2022-10-29T00:24:44.586Z,15.41
2022-10-29T00:25:46.019Z,15.35
2022-10-29T00:26:47.454Z,15.41
2022-10-29T00:27:48.899Z,15.45
2022-10-29T00:28:52.397Z,15.44
2022-10-29T00:29:53.814Z,15.51
2022-10-29T00:30:55.393Z,15.48
2022-10-29T00:31:56.890Z,15.50
2022-10-29T00:32:59.712Z,15.51
2022-10-29T00:34:01.475Z,15.49
2022-10-29T00:35:02.997Z,15.47
2022-10-29T00:36:07.103Z,15.25
2022-10-29T00:37:08.558Z,15.27
2022-10-29T00:38:09.981Z,15.21
2022-10-29T00:39:13.209Z,15.10
2022-10-29T00:40:14.794Z,15.04
2022-10-29T00:41:18.469Z,15.00
2022-10-29T00:42:19.895Z,14.89
2022-10-29T00:43:23.609Z,14.83
2022-10-29T00:44:29.443Z,14.97
2022-10-29T00:45:30.875Z,14.97
2022-10-29T00:46:35.433Z,15.03
2022-10-29T00:47:37.818Z,15.10
2022-10-29T00:48:45.947Z,15.11
2022-10-29T00:49:49.913Z,15.11
2022-10-29T00:50:53.337Z,15.01
2022-10-29T00:51:55.114Z,15.10
2022-10-29T00:52:57.711Z,15.08
2022-10-29T00:54:02.322Z,15.04
2022-10-29T00:55:07.341Z,15.04
2022-10-29T00:56:09.053Z,14.99
2022-10-29T00:57:15.016Z,15.02
2022-10-29T00:58:16.866Z,15.01
2022-10-29T00:59:18.683Z,15.04
2022-10-29T01:00:21.512Z,15.03
2022-10-29T01:01:23.015Z,15.06
2022-10-29T01:02:25.132Z,15.04
2022-10-29T01:03:26.653Z,14.97
2022-10-29T01:04:30.711Z,15.03
2022-10-29T01:05:35.060Z,15.03
2022-10-29T01:06:37.405Z,15.05
2022-10-29T01:07:39.477Z,15.06
2022-10-29T01:08:40.881Z,15.04
2022-10-29T01:09:42.384Z,15.06
2022-10-29T01:10:59.656Z,14.97
2022-10-29T01:12:18.554Z,14.83
2022-10-29T01:13:37.303Z,14.83
2022-10-29T01:14:50.190Z,14.81
2022-10-29T01:16:03.291Z,14.68
2022-10-29T01:17:15.921Z,14.71
2022-10-29T01:18:23.125Z,14.80
2022-10-29T01:19:53.475Z,14.81
2022-10-29T01:21:37.759Z,14.82
2022-10-29T01:22:43.810Z,14.79
2022-10-29T01:24:16.455Z,14.79
2022-10-29T01:25:40.039Z,14.79
2022-10-29T01:27:05.541Z,14.75
2022-10-29T01:28:24.928Z,14.75
2022-10-29T01:29:43.120Z,14.70
2022-10-29T01:31:13.750Z,14.64
2022-10-29T01:32:20.034Z,14.71
2022-10-29T01:33:27.366Z,14.68
2022-10-29T01:34:38.644Z,14.73
2022-10-29T01:35:48.848Z,14.70
2022-10-29T01:36:57.247Z,14.66
2022-10-29T01:38:09.748Z,14.67
2022-10-29T01:39:20.720Z,14.62
2022-10-29T01:40:26.546Z,14.67
2022-10-29T01:41:41.896Z,14.67
2022-10-29T01:42:49.607Z,14.65
2022-10-29T01:43:55.375Z,14.69
2022-10-29T01:45:03.616Z,14.67
2022-10-29T01:46:12.415Z,14.59
2022-10-29T01:47:16.683Z,14.68
2022-10-29T01:48:22.358Z,14.59
2022-10-29T01:49:28.514Z,14.62
2022-10-29T01:50:30.350Z,14.65
2022-10-29T01:51:35.593Z,14.62
2022-10-29T01:52:38.987Z,14.63
2022-10-29T01:53:40.501Z,14.61
2022-10-29T01:54:42.307Z,14.61
2022-10-29T01:55:43.732Z,14.53
2022-10-29T01:56:53.715Z,14.54
2022-10-29T01:57:55.952Z,14.58
2022-10-29T01:58:59.991Z,14.46
2022-10-29T02:00:04.286Z,14.31
2022-10-29T02:01:20.094Z,14.24
2022-10-29T02:02:29.231Z,14.23
2022-10-29T02:03:42.646Z,14.16
2022-10-29T02:04:57.997Z,14.17
2022-10-29T02:06:10.547Z,14.21
2022-10-29T02:07:20.489Z,14.24
2022-10-29T02:08:31.835Z,14.24
2022-10-29T02:09:35.892Z,14.23
2022-10-29T02:10:45.067Z,14.23
2022-10-29T02:11:52.669Z,14.29
2022-10-29T02:12:55.436Z,14.26
2022-10-29T02:14:02.132Z,14.25
2022-10-29T02:15:07.835Z,14.32
2022-10-29T02:16:11.801Z,14.38
2022-10-29T02:17:13.306Z,14.39
2022-10-29T02:18:16.315Z,14.38
2022-10-29T02:19:17.956Z,14.43
2022-10-29T02:20:19.491Z,14.44
2022-10-29T02:21:21.115Z,14.41
2022-10-29T02:22:22.620Z,14.48
2022-10-29T02:23:24.082Z,14.30
2022-10-29T02:24:25.798Z,14.42
2022-10-29T02:25:27.681Z,14.32
2022-10-29T02:26:29.156Z,14.34
2022-10-29T02:27:30.571Z,14.40
2022-10-29T02:28:32.005Z,14.36
2022-10-29T02:29:33.935Z,14.42
2022-10-29T02:30:35.519Z,14.38
2022-10-29T02:31:38.300Z,14.37
2022-10-29T02:32:39.772Z,14.27
2022-10-29T02:33:41.257Z,14.36
2022-10-29T02:34:42.716Z,14.30
2022-10-29T02:35:44.163Z,14.33
2022-10-29T02:36:45.653Z,14.42
2022-10-29T02:37:47.081Z,14.37
2022-10-29T02:38:48.505Z,14.28
2022-10-29T02:39:49.961Z,14.27
2022-10-29T02:40:51.417Z,14.25
2022-10-29T02:41:52.864Z,14.22
2022-10-29T02:42:54.536Z,14.31
2022-10-29T02:43:56.219Z,14.26
2022-10-29T02:44:57.636Z,14.24
2022-10-29T02:46:10.584Z,14.36
2022-10-29T02:47:13.458Z,14.35
2022-10-29T02:48:14.860Z,14.31
2022-10-29T02:49:16.309Z,14.29
2022-10-29T02:50:17.766Z,14.37
2022-10-29T02:51:19.480Z,14.36
2022-10-29T02:52:20.971Z,14.41
2022-10-29T02:53:22.438Z,14.39
2022-10-29T02:54:23.846Z,14.39
2022-10-29T02:55:25.303Z,14.42
2022-10-29T02:56:26.754Z,14.45
2022-10-29T02:57:28.200Z,14.42
2022-10-29T02:58:29.615Z,14.40
2022-10-29T02:59:31.072Z,14.42
2022-10-29T03:00:32.499Z,14.42
2022-10-29T03:01:34.077Z,14.40
2022-10-29T03:02:37.108Z,14.37
2022-10-29T03:03:38.658Z,14.41
2022-10-29T03:04:40.088Z,14.43
2022-10-29T03:05:46.481Z,14.45
2022-10-29T03:06:50.405Z,14.39
2022-10-29T03:07:52.298Z,14.49
2022-10-29T03:08:53.803Z,14.49
2022-10-29T03:09:55.268Z,14.48
2022-10-29T03:10:56.694Z,14.46
2022-10-29T03:11:58.130Z,14.43
2022-10-29T03:12:59.700Z,14.45
2022-10-29T03:14:01.244Z,14.51
2022-10-29T03:15:02.862Z,14.47
2022-10-29T03:16:05.374Z,14.41
2022-10-29T03:17:06.864Z,14.41
2022-10-29T03:18:09.703Z,14.45
2022-10-29T03:19:11.182Z,14.42
2022-10-29T03:20:12.628Z,14.48
2022-10-29T03:21:14.103Z,14.49
2022-10-29T03:22:15.576Z,14.48
2022-10-29T03:23:17.027Z,14.46
2022-10-29T03:24:18.506Z,14.47
2022-10-29T03:25:19.958Z,14.39
2022-10-29T03:26:21.444Z,14.37
2022-10-29T03:27:22.940Z,14.38
2022-10-29T03:28:25.689Z,14.43
2022-10-29T03:29:27.124Z,14.50
2022-10-29T03:30:28.539Z,14.48
2022-10-29T03:31:29.975Z,14.46
2022-10-29T03:32:31.425Z,14.38
2022-10-29T03:33:35.685Z,14.43
2022-10-29T03:34:37.137Z,14.39
2022-10-29T03:35:38.655Z,14.38
2022-10-29T03:36:40.175Z,14.47
2022-10-29T03:37:41.731Z,14.46
2022-10-29T03:38:43.197Z,14.53
2022-10-29T03:39:44.739Z,14.52
2022-10-29T03:40:46.190Z,14.46
2022-10-29T03:41:47.610Z,14.50
2022-10-29T03:42:49.038Z,14.51
2022-10-29T03:43:51.046Z,14.51
2022-10-29T03:44:52.667Z,14.55
2022-10-29T03:45:55.824Z,14.56
2022-10-29T03:46:57.557Z,14.59
2022-10-29T03:47:59.106Z,14.59
2022-10-29T03:49:02.236Z,14.57
2022-10-29T03:50:04.510Z,14.59
2022-10-29T03:51:06.759Z,14.56
2022-10-29T03:52:08.240Z,14.51
2022-10-29T03:53:10.667Z,14.58
2022-10-29T03:54:12.170Z,14.58
2022-10-29T03:55:13.634Z,14.53
2022-10-29T03:56:15.256Z,14.38
2022-10-29T03:57:16.703Z,14.51
2022-10-29T03:58:18.500Z,14.52
2022-10-29T03:59:19.964Z,14.47
2022-10-29T04:00:21.494Z,14.57
2022-10-29T04:01:23.616Z,14.42
2022-10-29T04:02:25.385Z,14.45
2022-10-29T04:03:28.386Z,14.32
2022-10-29T04:04:31.174Z,14.45
2022-10-29T04:05:32.607Z,14.42
2022-10-29T04:06:34.065Z,14.47
2022-10-29T04:07:35.520Z,14.53
2022-10-29T04:08:37.322Z,14.51
2022-10-29T04:09:38.786Z,14.42
2022-10-29T04:10:45.633Z,14.39
2022-10-29T04:11:47.083Z,14.48
2022-10-29T04:12:48.637Z,14.45
2022-10-29T04:13:52.054Z,14.43
2022-10-29T04:14:53.575Z,14.42
2022-10-29T04:15:55.609Z,14.39
2022-10-29T04:16:57.759Z,14.39
2022-10-29T04:17:59.516Z,14.42
2022-10-29T04:19:01.229Z,14.42
2022-10-29T04:20:09.969Z,14.37
2022-10-29T04:29:31.847Z,14.31
2022-10-29T04:30:33.389Z,14.23
2022-10-29T04:31:35.084Z,14.27
2022-10-29T04:32:36.523Z,14.25
2022-10-29T04:33:37.943Z,14.28
2022-10-29T04:34:39.372Z,14.32
2022-10-29T04:35:42.195Z,14.28
2022-10-29T04:36:43.692Z,14.37
2022-10-29T04:37:45.181Z,14.39
2022-10-29T04:38:46.763Z,14.34
2022-10-29T04:39:48.192Z,14.37
2022-10-29T04:40:50.158Z,14.28
2022-10-29T04:41:51.595Z,14.35
2022-10-29T04:42:53.231Z,14.38
2022-10-29T04:43:54.751Z,14.37
2022-10-29T04:44:56.202Z,14.33
2022-10-29T04:45:59.089Z,14.35
2022-10-29T04:47:00.531Z,14.31
2022-10-29T04:48:03.299Z,14.23
2022-10-29T04:49:04.804Z,14.19
2022-10-29T04:50:06.764Z,14.20
2022-10-29T04:51:19.337Z,14.15
2022-10-29T04:52:20.808Z,14.10
2022-10-29T04:53:22.455Z,14.09
2022-10-29T04:54:23.924Z,14.14
2022-10-29T04:55:25.651Z,14.01
2022-10-29T04:56:27.088Z,14.11
2022-10-29T04:57:28.530Z,14.04
2022-10-29T04:58:29.971Z,14.02
2022-10-29T04:59:31.455Z,13.99
2022-10-29T05:00:33.440Z,14.08
2022-10-29T05:02:37.272Z,13.99
2022-10-29T05:03:38.716Z,13.98
2022-10-29T05:04:40.150Z,14.03
2022-10-29T05:05:41.646Z,14.06
2022-10-29T05:06:44.431Z,14.07
2022-10-29T05:07:46.267Z,14.13
2022-10-29T05:08:47.674Z,14.08
2022-10-29T05:09:49.131Z,14.05
2022-10-29T05:10:50.808Z,13.99
2022-10-29T05:11:52.271Z,14.04
2022-10-29T05:12:58.747Z,14.00
2022-10-29T05:14:00.308Z,14.10
2022-10-29T05:15:01.750Z,14.18
2022-10-29T05:16:03.415Z,14.20
2022-10-29T05:17:04.930Z,14.24
2022-10-29T05:18:07.134Z,14.24
2022-10-29T05:19:08.560Z,14.24
2022-10-29T05:20:10.958Z,14.18
2022-10-29T05:21:12.418Z,14.12
2022-10-29T05:22:15.176Z,14.28
2022-10-29T05:23:16.594Z,14.32
2022-10-29T05:24:18.003Z,14.28
2022-10-29T05:25:19.424Z,14.35
2022-10-29T05:26:20.842Z,14.30
2022-10-29T05:27:22.282Z,14.26
2022-10-29T05:28:24.516Z,14.31
2022-10-29T05:29:25.927Z,14.31
2022-10-29T05:30:27.346Z,14.23
2022-10-29T05:31:28.799Z,14.21
2022-10-29T05:32:30.494Z,14.09
2022-10-29T05:33:32.001Z,14.18
2022-10-29T05:34:33.432Z,14.16
2022-10-29T05:35:34.995Z,14.15
2022-10-29T05:36:36.427Z,14.06
2022-10-29T05:37:39.242Z,14.04
2022-10-29T05:38:40.729Z,14.06
2022-10-29T05:39:42.182Z,14.04
2022-10-29T05:40:44.216Z,14.06
2022-10-29T05:41:46.503Z,13.96
2022-10-29T05:42:48.014Z,14.03
2022-10-29T05:43:49.859Z,13.94
2022-10-29T05:44:51.304Z,13.87
2022-10-29T05:45:52.774Z,13.97
2022-10-29T05:46:54.200Z,13.91
2022-10-29T05:47:56.282Z,13.95
2022-10-29T05:48:58.082Z,13.91
2022-10-29T05:49:59.660Z,13.96
2022-10-29T05:51:01.122Z,14.02
2022-10-29T05:52:02.712Z,14.08
2022-10-29T05:53:07.226Z,14.05
2022-10-29T05:54:08.620Z,14.06
2022-10-29T05:55:10.044Z,14.05
2022-10-29T05:56:11.514Z,14.11
2022-10-29T05:57:12.954Z,14.16
2022-10-29T05:58:14.399Z,14.14
2022-10-29T05:59:15.891Z,14.15
2022-10-29T06:00:17.717Z,14.16
2022-10-29T06:01:19.179Z,14.16
2022-10-29T06:02:20.833Z,14.11
2022-10-29T06:03:22.953Z,14.14
2022-10-29T06:04:24.416Z,14.14
2022-10-29T06:05:26.123Z,14.16
2022-10-29T06:06:27.713Z,14.17
2022-10-29T06:07:29.182Z,14.14
2022-10-29T06:08:32.094Z,14.16
2022-10-29T06:09:33.703Z,14.19
2022-10-29T06:10:35.818Z,14.17
2022-10-29T06:11:37.229Z,14.19
2022-10-29T06:12:38.697Z,14.23
2022-10-29T06:13:40.156Z,14.21
2022-10-29T06:14:41.600Z,14.09
2022-10-29T06:15:43.143Z,14.11
2022-10-29T06:16:44.548Z,14.12
2022-10-29T06:17:47.038Z,14.08
2022-10-29T06:18:48.527Z,14.17
2022-10-29T06:19:50.104Z,14.16
2022-10-29T06:20:51.534Z,14.13
2022-10-29T06:21:55.218Z,14.24
2022-10-29T06:22:59.511Z,14.27
2022-10-29T06:24:02.616Z,14.18
2022-10-29T06:25:05.002Z,14.31
2022-10-29T06:26:06.422Z,14.26
2022-10-29T06:27:07.907Z,14.28
2022-10-29T06:28:11.032Z,14.29
2022-10-29T06:29:12.473Z,14.24
2022-10-29T06:30:14.028Z,14.22
2022-10-29T06:31:15.516Z,14.32
2022-10-29T06:32:16.991Z,14.34
2022-10-29T06:33:19.264Z,14.34
2022-10-29T06:34:20.710Z,14.28
2022-10-29T06:35:22.620Z,14.28
2022-10-29T06:36:24.118Z,14.27
2022-10-29T06:37:25.552Z,14.30
2022-10-29T06:38:26.998Z,14.34
2022-10-29T06:39:29.772Z,14.35
2022-10-29T06:40:31.197Z,14.38
2022-10-29T06:41:32.632Z,14.36
2022-10-29T06:42:34.301Z,14.38
2022-10-29T06:43:35.777Z,14.38
2022-10-29T06:44:37.219Z,14.42
2022-10-29T06:45:38.774Z,14.46
2022-10-29T06:46:40.202Z,14.53
2022-10-29T06:47:42.580Z,14.49
2022-10-29T06:48:44.052Z,14.49
2022-10-29T06:49:45.476Z,14.43
2022-10-29T06:50:46.948Z,14.53
2022-10-29T06:51:48.681Z,14.38
2022-10-29T06:52:57.897Z,14.38
2022-10-29T06:53:59.749Z,14.41
2022-10-29T06:55:03.670Z,14.33
2022-10-29T06:56:05.293Z,14.29
2022-10-29T06:57:06.687Z,14.27
2022-10-29T06:58:11.670Z,14.21
2022-10-29T06:59:13.115Z,14.38
2022-10-29T07:00:14.804Z,14.42
2022-10-29T07:01:16.293Z,14.37
2022-10-29T07:02:19.190Z,14.43
2022-10-29T07:03:21.220Z,14.43
2022-10-29T07:04:22.735Z,14.48
2022-10-29T07:05:24.523Z,14.54
2022-10-29T07:06:26.380Z,14.52
2022-10-29T07:07:28.084Z,14.53
2022-10-29T07:08:29.521Z,14.54
2022-10-29T07:09:30.976Z,14.59
2022-10-29T07:10:34.158Z,14.57
2022-10-29T07:11:35.610Z,14.59
2022-10-29T07:12:39.614Z,14.63
2022-10-29T07:13:41.027Z,14.69
2022-10-29T07:14:42.479Z,14.65
2022-10-29T07:15:43.892Z,14.68
2022-10-29T07:16:45.329Z,14.70
2022-10-29T07:17:54.932Z,14.67
2022-10-29T07:18:56.523Z,14.74
2022-10-29T07:19:58.023Z,14.60
2022-10-29T07:21:02.190Z,14.80
2022-10-29T07:22:03.670Z,14.78
2022-10-29T07:23:05.401Z,14.80
2022-10-29T07:24:07.608Z,14.87
2022-10-29T07:25:09.371Z,14.85
2022-10-29T07:26:12.158Z,14.71
2022-10-29T07:27:13.672Z,14.86
2022-10-29T07:28:16.775Z,14.84
2022-10-29T07:29:18.237Z,14.79
2022-10-29T07:30:20.256Z,14.92
2022-10-29T07:31:21.691Z,14.89
2022-10-29T07:32:23.726Z,15.00
2022-10-29T07:33:25.199Z,15.01
2022-10-29T07:34:26.606Z,15.14
2022-10-29T07:35:28.074Z,15.22
2022-10-29T07:36:29.989Z,15.28
2022-10-29T07:37:31.419Z,15.28
2022-10-29T07:38:32.847Z,15.36
2022-10-29T07:39:34.363Z,15.45
2022-10-29T07:40:36.172Z,15.45
2022-10-29T07:41:38.963Z,15.47
2022-10-29T07:42:40.413Z,15.58
2022-10-29T07:43:41.871Z,15.66
2022-10-29T07:44:43.309Z,15.70
2022-10-29T07:45:46.257Z,15.78
2022-10-29T07:46:47.707Z,15.84
2022-10-29T07:47:49.207Z,15.91
2022-10-29T07:48:50.651Z,15.93
2022-10-29T07:49:52.084Z,15.97
2022-10-29T07:50:53.586Z,16.00
2022-10-29T07:51:55.031Z,16.13
2022-10-29T07:52:59.219Z,16.21
2022-10-29T07:54:00.952Z,16.28
2022-10-29T07:55:02.408Z,16.31
2022-10-29T07:56:04.211Z,16.38
2022-10-29T07:57:06.953Z,16.39
2022-10-29T07:58:12.222Z,16.44
2022-10-29T07:59:13.657Z,16.45
2022-10-29T08:00:15.725Z,16.60
2022-10-29T08:01:17.398Z,16.63
2022-10-29T08:02:18.974Z,16.69
2022-10-29T08:03:20.782Z,16.57
2022-10-29T08:04:22.223Z,16.68
2022-10-29T08:05:25.017Z,16.61
2022-10-29T08:06:26.460Z,16.65
2022-10-29T08:07:27.952Z,16.65
2022-10-29T08:08:29.398Z,16.71
2022-10-29T08:09:30.826Z,16.73
2022-10-29T08:10:33.508Z,16.65
2022-10-29T08:11:35.073Z,16.71
2022-10-29T08:12:37.873Z,16.79
2022-10-29T08:13:39.295Z,16.69
2022-10-29T08:14:40.760Z,16.71
2022-10-29T08:15:45.848Z,16.76
2022-10-29T08:16:47.445Z,16.84
2022-10-29T08:17:50.088Z,16.76
2022-10-29T08:18:51.558Z,16.86
2022-10-29T08:19:53.119Z,16.86
2022-10-29T08:20:54.571Z,16.95
2022-10-29T08:21:56.135Z,16.90
2022-10-29T08:23:00.013Z,16.89
2022-10-29T08:24:01.962Z,16.97
2022-10-29T08:25:03.944Z,16.95
2022-10-29T08:26:05.760Z,17.08
2022-10-29T08:27:07.232Z,17.20
2022-10-29T08:28:11.693Z,17.26
2022-10-29T08:29:15.196Z,17.29
2022-10-29T08:30:16.650Z,17.27
2022-10-29T08:31:18.069Z,17.32
2022-10-29T08:32:19.624Z,17.43
2022-10-29T08:33:21.041Z,17.40
2022-10-29T08:34:22.455Z,17.51
2022-10-29T08:35:23.999Z,17.50
2022-10-29T08:36:25.413Z,17.49
2022-10-29T08:37:27.023Z,17.42
2022-10-29T08:38:28.487Z,17.42
2022-10-29T08:39:29.914Z,17.31
2022-10-29T08:40:38.042Z,17.27
2022-10-29T08:41:51.935Z,17.29
2022-10-29T08:43:08.242Z,17.34
2022-10-29T08:44:36.462Z,17.36
2022-10-29T08:45:45.443Z,17.53
2022-10-29T08:46:49.500Z,17.59
2022-10-29T08:48:11.191Z,17.55
2022-10-29T08:49:16.187Z,17.59
2022-10-29T08:50:24.802Z,17.73
2022-10-29T08:51:30.499Z,17.71
2022-10-29T08:52:36.863Z,17.58
2022-10-29T08:53:41.895Z,17.65
2022-10-29T08:54:45.748Z,17.72
2022-10-29T08:55:47.381Z,17.71
2022-10-29T08:56:51.442Z,17.78
2022-10-29T08:57:56.706Z,17.87
2022-10-29T08:59:05.226Z,17.94
2022-10-29T09:00:14.987Z,17.80
2022-10-29T09:01:20.535Z,17.95
2022-10-29T09:02:22.155Z,17.89
2022-10-29T09:03:26.686Z,18.01
2022-10-29T09:04:34.067Z,18.12
2022-10-29T09:05:50.373Z,18.16
2022-10-29T09:07:07.106Z,18.18
2022-10-29T09:08:26.411Z,18.15
2022-10-29T09:09:33.821Z,18.23
2022-10-29T09:10:41.234Z,18.36
2022-10-29T09:11:53.667Z,18.25
2022-10-29T09:13:15.940Z,18.15
2022-10-29T09:14:30.906Z,18.17
2022-10-29T09:16:05.455Z,18.11
2022-10-29T09:17:19.270Z,18.33
2022-10-29T09:18:31.272Z,18.44
2022-10-29T09:20:18.126Z,18.41
2022-10-29T09:21:31.368Z,18.51
2022-10-29T09:22:40.434Z,18.63
2022-10-29T09:23:55.792Z,18.63
2022-10-29T09:25:10.182Z,18.67
2022-10-29T09:26:15.960Z,18.80
2022-10-29T09:27:24.349Z,18.89
2022-10-29T09:28:36.614Z,18.89
2022-10-29T09:29:57.296Z,18.86
2022-10-29T09:31:10.777Z,18.80
2022-10-29T09:32:17.141Z,18.96
2022-10-29T09:33:21.589Z,19.02
2022-10-29T09:34:29.215Z,19.02
2022-10-29T09:35:38.861Z,19.09
2022-10-29T09:36:40.704Z,19.00
2022-10-29T09:37:48.496Z,19.10
2022-10-29T09:38:56.201Z,19.23
2022-10-29T09:39:59.048Z,19.14
2022-10-29T09:41:02.721Z,19.18
2022-10-29T09:42:11.210Z,19.30
2022-10-29T09:43:24.124Z,19.20
2022-10-29T09:44:35.391Z,19.23
2022-10-29T09:45:43.287Z,19.19
2022-10-29T09:46:57.234Z,19.31
2022-10-29T09:48:05.875Z,19.31
2022-10-29T09:49:21.420Z,19.28
2022-10-29T09:50:30.127Z,19.14
2022-10-29T09:51:42.367Z,19.36
2022-10-29T09:52:45.807Z,19.28
2022-10-29T09:53:47.296Z,19.31
2022-10-29T09:54:50.803Z,19.45
2022-10-29T09:55:52.307Z,19.33
2022-10-29T09:56:56.136Z,19.43
2022-10-29T09:57:58.096Z,19.51
2022-10-29T09:59:11.495Z,19.51
2022-10-29T10:00:20.296Z,19.57
2022-10-29T10:01:22.001Z,19.51
2022-10-29T10:02:32.325Z,19.61
2022-10-29T10:03:37.556Z,19.68
2022-10-29T10:04:43.997Z,19.69
2022-10-29T10:06:07.388Z,19.65
2022-10-29T10:07:10.967Z,19.58
2022-10-29T10:08:13.815Z,19.63
2022-10-29T10:09:15.256Z,19.77
2022-10-29T10:10:22.341Z,19.72
2022-10-29T10:11:24.624Z,19.90
2022-10-29T10:12:28.119Z,19.92
2022-10-29T10:13:31.679Z,19.93
2022-10-29T10:14:33.172Z,19.99
2022-10-29T10:15:36.527Z,19.92
2022-10-29T10:16:38.215Z,20.07
2022-10-29T10:18:01.773Z,20.13
2022-10-29T10:19:03.471Z,20.11
2022-10-29T10:20:26.526Z,20.24
2022-10-29T10:21:29.491Z,20.20
2022-10-29T10:22:30.980Z,20.24
2022-10-29T10:23:42.635Z,20.15
2022-10-29T10:24:44.105Z,20.24
2022-10-29T10:25:45.695Z,20.31
2022-10-29T10:26:47.207Z,20.39
2022-10-29T10:27:48.614Z,20.41
2022-10-29T10:29:04.482Z,20.42
2022-10-29T10:30:13.888Z,20.36
2022-10-29T10:31:16.346Z,20.47
2022-10-29T10:32:18.634Z,20.55
2022-10-29T10:33:26.025Z,20.56
2022-10-29T10:34:38.075Z,20.62
2022-10-29T10:35:39.491Z,20.68
2022-10-29T10:36:44.013Z,20.77
2022-10-29T10:37:45.576Z,20.86
2022-10-29T10:38:49.735Z,20.87
2022-10-29T10:39:56.557Z,20.93
2022-10-29T10:41:05.234Z,20.78
2022-10-29T10:42:16.874Z,20.72
2022-10-29T10:43:21.919Z,20.78
2022-10-29T10:44:24.124Z,20.74
2022-10-29T10:45:30.871Z,20.83
2022-10-29T10:46:35.339Z,20.87
2022-10-29T10:47:40.994Z,20.81
2022-10-29T10:48:43.935Z,20.91
2022-10-29T10:49:45.753Z,20.94
2022-10-29T10:50:47.593Z,21.01
2022-10-29T10:51:50.967Z,20.95
2022-10-29T10:52:54.683Z,21.01
2022-10-29T10:53:57.269Z,21.09
2022-10-29T10:55:01.243Z,21.12
2022-10-29T10:56:03.088Z,21.05
2022-10-29T10:57:18.902Z,21.06
2022-10-29T10:58:27.208Z,21.16
2022-10-29T10:59:42.294Z,21.27
2022-10-29T11:00:48.030Z,21.24
2022-10-29T11:01:51.277Z,21.16
2022-10-29T11:02:57.929Z,21.25
2022-10-29T11:04:13.294Z,21.24
2022-10-29T11:05:18.246Z,21.32
2022-10-29T11:06:25.446Z,21.27
2022-10-29T11:07:32.710Z,21.38
2022-10-29T11:08:40.429Z,21.28
2022-10-29T11:09:46.490Z,21.26
2022-10-29T11:10:52.386Z,21.21
2022-10-29T11:11:59.534Z,21.20
2022-10-29T11:13:04.958Z,21.28
2022-10-29T11:14:13.506Z,21.28
2022-10-29T11:15:19.569Z,21.31
2022-10-29T11:16:26.993Z,21.35
2022-10-29T11:17:35.571Z,21.27
2022-10-29T11:18:41.563Z,21.31
2022-10-29T11:19:50.057Z,21.28
2022-10-29T11:21:03.021Z,21.35
2022-10-29T11:22:18.324Z,21.37
2022-10-29T11:23:34.520Z,21.46
2022-10-29T11:24:44.936Z,21.43
2022-10-29T11:25:51.077Z,21.49
2022-10-29T11:26:58.131Z,21.48
2022-10-29T11:28:06.959Z,21.50
2022-10-29T11:29:17.904Z,21.49
2022-10-29T11:30:20.105Z,21.45
2022-10-29T11:31:27.357Z,21.62
2022-10-29T11:32:38.648Z,21.70
2022-10-29T11:33:45.017Z,21.70
2022-10-29T11:34:53.875Z,21.67
2022-10-29T11:36:02.070Z,21.81
2022-10-29T11:37:10.582Z,21.76
2022-10-29T11:38:18.870Z,21.81
2022-10-29T11:39:26.777Z,21.81
2022-10-29T11:40:37.340Z,21.89
2022-10-29T11:41:44.295Z,21.91
2022-10-29T11:42:45.984Z,21.87
2022-10-29T11:43:47.905Z,22.01
2022-10-29T11:44:49.477Z,22.06
2022-10-29T11:45:58.296Z,22.04
2022-10-29T11:47:23.269Z,22.08
2022-10-29T11:48:36.858Z,22.13
2022-10-29T11:49:53.841Z,22.06
2022-10-29T11:52:08.899Z,22.18
2022-10-29T11:53:26.342Z,22.18
2022-10-29T11:54:43.486Z,22.21
2022-10-29T11:55:56.276Z,22.30
2022-10-29T11:57:02.779Z,22.29
2022-10-29T11:58:16.159Z,22.24
2022-10-29T11:59:26.678Z,22.34
2022-10-29T12:00:34.496Z,22.31
2022-10-29T12:01:44.116Z,22.27
2022-10-29T12:03:12.875Z,22.29
2022-10-29T12:04:25.748Z,22.34
2022-10-29T12:05:34.823Z,22.26
2022-10-29T12:06:42.265Z,22.01
2022-10-29T12:08:03.672Z,21.94
2022-10-29T12:09:32.198Z,21.93
2022-10-29T12:10:44.153Z,21.89
2022-10-29T12:11:58.739Z,21.87
2022-10-29T12:13:09.982Z,21.92
2022-10-29T12:14:19.997Z,21.83
2022-10-29T12:15:26.212Z,21.85
2022-10-29T12:16:37.196Z,21.98
2022-10-29T12:17:46.683Z,21.93
2022-10-29T12:18:55.308Z,22.04
2022-10-29T12:20:01.117Z,22.04
2022-10-29T12:21:09.496Z,21.96
2022-10-29T12:22:25.072Z,21.85
2022-10-29T12:23:35.381Z,21.97
2022-10-29T12:25:04.035Z,21.98
2022-10-29T12:26:11.991Z,22.00
2022-10-29T12:27:19.522Z,22.05
2022-10-29T12:28:30.004Z,22.10
2022-10-29T12:29:39.046Z,22.13
2022-10-29T12:30:48.494Z,22.18
2022-10-29T12:31:57.030Z,22.14
2022-10-29T12:33:07.217Z,22.10
2022-10-29T12:34:16.109Z,21.97
2022-10-29T12:35:26.466Z,22.14
2022-10-29T12:36:35.323Z,22.12
2022-10-29T12:37:44.008Z,22.10
2022-10-29T12:38:52.287Z,22.25
2022-10-29T12:39:59.046Z,22.34
2022-10-29T12:41:04.800Z,22.29
2022-10-29T12:42:14.315Z,22.39
2022-10-29T12:43:23.299Z,22.45
2022-10-29T12:44:34.675Z,22.49
2022-10-29T12:46:19.073Z,22.49
2022-10-29T12:47:12.687Z,22.63
2022-10-29T12:48:21.356Z,22.65
2022-10-29T12:49:32.765Z,22.71
2022-10-29T12:50:44.000Z,22.80
2022-10-29T12:51:53.692Z,22.82
2022-10-29T12:53:03.063Z,22.89
2022-10-29T12:54:27.549Z,22.99
2022-10-29T12:55:30.539Z,22.99
2022-10-29T12:56:32.554Z,23.03
2022-10-29T12:57:35.709Z,23.03
2022-10-29T12:58:50.404Z,22.88
2022-10-29T12:59:51.882Z,22.96
2022-10-29T13:00:53.388Z,22.91
2022-10-29T13:02:11.033Z,22.95
2022-10-29T13:03:58.624Z,22.92
2022-10-29T13:05:19.153Z,22.81
2022-10-29T13:06:43.888Z,22.58
2022-10-29T13:08:18.924Z,22.43
2022-10-29T13:09:23.516Z,22.51
2022-10-29T13:10:56.239Z,22.57
2022-10-29T13:11:59.477Z,22.55
2022-10-29T13:13:02.994Z,22.64
2022-10-29T13:14:05.589Z,22.55
2022-10-29T13:15:11.884Z,22.59
2022-10-29T13:16:16.687Z,22.51
2022-10-29T13:17:28.474Z,22.54
2022-10-29T13:18:44.293Z,22.51
2022-10-29T13:19:49.592Z,22.53
2022-10-29T13:20:52.566Z,22.55
2022-10-29T13:21:59.203Z,22.59
2022-10-29T13:23:03.888Z,22.72
2022-10-29T13:24:16.085Z,22.65
2022-10-29T13:25:52.372Z,22.74
2022-10-29T13:27:02.808Z,22.60
2022-10-29T13:28:50.719Z,22.67
2022-10-29T13:30:18.405Z,22.72
2022-10-29T13:31:48.803Z,22.80
2022-10-29T13:32:50.277Z,22.78
2022-10-29T13:33:51.757Z,22.78
2022-10-29T13:34:55.613Z,22.77
2022-10-29T13:35:58.149Z,22.78
2022-10-29T13:37:33.044Z,22.72
2022-10-29T13:38:51.936Z,22.84
2022-10-29T13:40:48.914Z,22.68
2022-10-29T13:41:53.814Z,22.64
2022-10-29T13:43:00.102Z,22.57
2022-10-29T13:44:05.350Z,22.49
2022-10-29T13:45:11.756Z,22.45
2022-10-29T13:46:46.113Z,22.37
2022-10-29T13:47:48.506Z,22.28
2022-10-29T13:48:52.049Z,22.18
2022-10-29T13:49:53.765Z,22.21
2022-10-29T13:50:58.482Z,22.19
2022-10-29T13:52:02.814Z,22.18
2022-10-29T13:53:13.371Z,22.10
2022-10-29T13:55:33.324Z,21.96
2022-10-29T13:56:41.569Z,21.93
2022-10-29T13:57:58.569Z,21.81
2022-10-29T13:59:02.783Z,21.76
2022-10-29T14:00:07.322Z,21.88
2022-10-29T14:01:14.707Z,21.79
2022-10-29T14:02:25.877Z,21.71
2022-10-29T14:03:35.470Z,21.76
2022-10-29T14:04:40.985Z,21.79
2022-10-29T14:05:47.062Z,21.67
2022-10-29T14:06:51.486Z,21.61
2022-10-29T14:07:55.353Z,21.50
2022-10-29T14:09:09.635Z,21.61
2022-10-29T14:10:21.623Z,21.57
2022-10-29T14:11:27.954Z,21.53
2022-10-29T14:12:31.532Z,21.45
2022-10-29T14:13:41.006Z,21.44
2022-10-29T14:14:52.031Z,21.42
2022-10-29T14:16:09.301Z,21.47
2022-10-29T14:17:12.964Z,21.41